Time;durP1;ratioP1;P1;durP2;ratioP2;P2;SDS_P1;SDS_P2;PMS_P1;PMS_P2;Temp;Humidity;BMP_temperature;BMP_pressure;BME280_temperature;BME280_humidity;BME280_pressure;Samples;Min_cycle;Max_cycle;Signal;HPM_P1;HPM_P2
2021/11/19 00:00:19;;;;;;;32.50;13.07;;;;;;;7.59;80.10;101314.34;5114333;28;20036;-62
2021/11/19 00:02:52;;;;;;;27.08;12.60;;;;;;;7.58;80.40;101304.81;5095634;28;20494;-62
2021/11/19 00:05:23;;;;;;;26.05;13.13;;;;;;;7.59;80.52;101311.75;5079490;28;20035;-63
2021/11/19 00:07:54;;;;;;;17.02;11.13;;;;;;;7.59;80.46;101317.78;5114296;28;20040;-63
2021/11/19 00:10:30;;;;;;;24.15;12.68;;;;;;;7.59;80.35;101310.03;5130213;27;20036;-62
2021/11/19 00:12:56;;;;;;;17.55;11.65;;;;;;;7.60;80.36;101311.81;5096012;28;20081;-62
2021/11/19 00:15:27;;;;;;;19.30;11.18;;;;;;;7.60;80.48;101310.94;5114021;28;20063;-62
2021/11/19 00:17:58;;;;;;;21.63;11.90;;;;;;;7.60;80.54;101308.38;5079348;28;20040;-62
2021/11/19 00:20:32;;;;;;;24.60;11.85;;;;;;;7.59;80.26;101320.38;5079295;28;20059;-62
2021/11/19 00:23:05;;;;;;;27.25;13.20;;;;;;;7.59;80.34;101322.94;5096127;28;20039;-62
2021/11/19 00:25:31;;;;;;;20.05;11.73;;;;;;;7.60;80.32;101319.56;5095931;28;20042;-64
2021/11/19 00:28:09;;;;;;;22.65;11.60;;;;;;;7.60;80.32;101319.56;5095575;28;20096;-62
2021/11/19 00:30:52;;;;;;;22.98;12.82;;;;;;;7.61;80.59;101316.16;5096386;28;20034;-62
2021/11/19 00:33:24;;;;;;;22.50;13.85;;;;;;;7.60;80.37;101304.06;5114161;28;20494;-63
2021/11/19 00:35:55;;;;;;;21.58;11.98;;;;;;;7.58;80.44;101297.97;5078764;28;20042;-63
2021/11/19 00:38:28;;;;;;;22.45;11.77;;;;;;;7.60;80.49;101301.50;5078960;28;20032;-63
2021/11/19 00:41:01;;;;;;;30.35;12.52;;;;;;;7.60;80.50;101303.22;5079019;28;20039;-62
2021/11/19 00:43:33;;;;;;;22.58;13.60;;;;;;;7.59;80.54;101302.31;5079163;28;20424;-62
2021/11/19 00:46:05;;;;;;;22.15;11.77;;;;;;;7.59;80.47;101299.72;5114188;28;20092;-63
2021/11/19 00:48:39;;;;;;;21.92;12.77;;;;;;;7.61;80.50;101304.97;5095303;28;20032;-63
2021/11/19 00:51:19;;;;;;;27.02;13.50;;;;;;;7.61;80.55;101299.81;5113751;28;20035;-63
2021/11/19 00:53:54;;;;;;;23.88;12.88;;;;;;;7.60;80.59;101304.06;5113917;28;20122;-63
2021/11/19 00:56:28;;;;;;;24.55;14.55;;;;;;;7.60;80.16;101306.66;5113867;28;20047;-62
2021/11/19 00:58:59;;;;;;;28.55;15.32;;;;;;;7.61;80.42;101299.81;5095493;28;20046;-62
2021/11/19 01:01:36;;;;;;;29.10;13.57;;;;;;;7.60;80.49;101306.66;5095416;28;20067;-63
2021/11/19 01:04:14;;;;;;;25.10;15.35;;;;;;;7.61;80.54;101299.81;5113273;28;20059;-63
2021/11/19 01:06:48;;;;;;;25.10;14.30;;;;;;;7.60;80.50;101301.50;5113694;28;20471;-63
2021/11/19 01:09:24;;;;;;;27.38;15.65;;;;;;;7.60;80.72;101298.03;5113559;28;20130;-63
2021/11/19 01:11:59;;;;;;;24.77;14.77;;;;;;;7.62;80.33;101306.75;5095674;28;20493;-63
2021/11/19 01:14:38;;;;;;;28.63;15.60;;;;;;;7.61;80.63;101308.44;5116327;28;20036;-63
2021/11/19 01:17:18;;;;;;;25.42;15.20;;;;;;;7.63;80.48;101305.91;5082534;28;20381;-63
2021/11/19 01:20:05;;;;;;;23.65;14.25;;;;;;;7.62;80.48;101311.91;5082195;28;20035;-62
2021/11/19 01:22:40;;;;;;;23.02;13.75;;;;;;;7.63;80.51;101311.06;5117560;28;20039;-63
2021/11/19 01:25:16;;;;;;;31.67;16.02;;;;;;;7.64;80.85;101314.56;5099577;28;20034;-63
2021/11/19 01:27:53;;;;;;;30.38;15.48;;;;;;;7.63;80.51;101308.50;5098571;28;20410;-63
2021/11/19 01:30:28;;;;;;;26.20;14.95;;;;;;;7.64;80.61;101311.97;5117276;28;20050;-63
2021/11/19 01:33:03;;;;;;;29.42;14.35;;;;;;;7.64;80.50;101319.72;5099591;28;20386;-63
2021/11/19 01:35:37;;;;;;;23.73;14.32;;;;;;;7.63;80.52;101318.81;5098896;28;20123;-63
2021/11/19 01:38:11;;;;;;;25.80;15.48;;;;;;;7.62;80.70;101310.19;5099170;28;20036;-62
2021/11/19 01:40:51;;;;;;;26.40;16.02;;;;;;;7.65;80.90;101316.31;5082207;28;20040;-62
2021/11/19 01:43:25;;;;;;;27.52;16.52;;;;;;;7.64;80.51;101314.56;5099126;28;20143;-62
2021/11/19 01:45:58;;;;;;;30.38;15.48;;;;;;;7.65;80.80;101324.94;5082272;28;20036;-63
2021/11/19 01:48:32;;;;;;;19.13;14.15;;;;;;;7.65;80.44;101332.69;5081862;28;20036;-63
2021/11/19 01:51:12;;;;;;;25.73;14.95;;;;;;;7.66;80.82;101336.16;5098322;28;20502;-63
2021/11/19 01:53:49;;;;;;;28.23;15.93;;;;;;;7.65;80.63;101324.94;5116665;28;20038;-63
2021/11/19 01:56:32;;;;;;;25.77;15.95;;;;;;;7.67;80.71;101325.03;5117060;28;20057;-63
2021/11/19 01:59:27;;;;;;;33.47;16.85;;;;;;;7.67;80.61;101325.03;5116444;28;20066;-63
2021/11/19 02:02:03;;;;;;;25.23;15.45;;;;;;;7.67;80.62;101319.88;5116451;28;20031;-64
2021/11/19 02:04:40;;;;;;;24.02;15.48;;;;;;;7.68;80.59;101319.06;5098627;28;20038;-62
2021/11/19 02:07:23;;;;;;;26.52;16.52;;;;;;;7.66;80.75;101318.97;5098107;28;20068;-62
2021/11/19 02:10:07;;;;;;;24.55;15.07;;;;;;;7.66;80.55;101318.97;5081534;28;20035;-62
2021/11/19 02:13:12;;;;;;;30.00;16.10;;;;;;;7.67;80.43;101317.28;5099039;28;20036;-62
2021/11/19 02:16:01;;;;;;;26.35;16.25;;;;;;;7.67;80.72;101312.13;5098139;28;20042;-62
2021/11/19 02:18:38;;;;;;;25.52;15.77;;;;;;;7.67;80.83;101310.41;5081167;28;20032;-63
2021/11/19 02:21:13;;;;;;;29.75;17.40;;;;;;;7.66;80.72;101303.47;5115613;28;20126;-62
2021/11/19 02:24:33;;;;;;;29.85;16.95;;;;;;;7.68;80.68;101303.56;5098319;28;20055;-62
2021/11/19 02:27:20;;;;;;;25.17;15.10;;;;;;;7.68;80.73;101296.72;5095791;28;20040;-62
2021/11/19 02:30:07;;;;;;;30.85;16.98;;;;;;;7.69;80.67;101298.47;5081460;28;20147;-62
2021/11/19 02:32:40;;;;;;;28.35;17.27;;;;;;;7.68;80.61;101293.25;5115976;28;20043;-62
2021/11/19 02:35:19;;;;;;;24.33;16.58;;;;;;;7.68;80.83;101298.41;5081136;28;20067;-63
2021/11/19 02:38:02;;;;;;;28.38;17.73;;;;;;;7.69;80.63;101300.19;5116091;28;20062;-62
2021/11/19 02:40:40;;;;;;;25.08;16.13;;;;;;;7.69;80.67;101300.19;5097686;28;20035;-62
2021/11/19 02:43:28;;;;;;;40.28;18.98;;;;;;;7.69;80.58;101292.44;5097775;28;20078;-62
2021/11/19 02:46:02;;;;;;;25.98;16.83;;;;;;;7.70;80.90;101289.06;5080545;28;20043;-62
2021/11/19 02:48:38;;;;;;;26.13;14.65;;;;;;;7.70;80.72;101299.38;5098053;28;20031;-62
2021/11/19 02:51:16;;;;;;;30.70;16.60;;;;;;;7.70;81.04;101301.97;5097303;28;20076;-63
2021/11/19 02:53:48;;;;;;;31.13;16.90;;;;;;;7.70;80.85;101302.81;5080679;28;20450;-62
2021/11/19 02:56:26;;;;;;;25.52;16.13;;;;;;;7.70;80.70;101302.81;5115450;28;20140;-62
2021/11/19 02:59:04;;;;;;;24.80;17.77;;;;;;;7.71;80.65;101309.75;5115446;28;20047;-63
2021/11/19 03:01:44;;;;;;;25.58;17.05;;;;;;;7.72;80.70;101295.16;5096963;28;20549;-62
2021/11/19 03:04:41;;;;;;;23.92;17.20;;;;;;;7.72;80.90;101308.06;5097234;28;20042;-62
2021/11/19 03:07:10;;;;;;;27.88;18.63;;;;;;;7.73;80.75;101313.31;5115132;28;20034;-64
2021/11/19 03:09:49;;;;;;;26.98;17.63;;;;;;;7.73;81.03;101309.81;5079967;28;20035;-63
2021/11/19 03:12:23;;;;;;;29.60;18.17;;;;;;;7.74;80.82;101306.44;5115277;28;20036;-62
2021/11/19 03:14:56;;;;;;;26.10;16.80;;;;;;;7.74;80.60;101311.59;5097089;28;20043;-63
2021/11/19 03:17:30;;;;;;;29.80;19.25;;;;;;;7.75;80.65;101315.94;5097130;28;20040;-63
2021/11/19 03:20:07;;;;;;;25.05;17.92;;;;;;;7.74;80.72;101307.34;5097628;28;20070;-63
2021/11/19 03:22:38;;;;;;;26.83;17.90;;;;;;;7.75;80.88;101318.53;5079716;28;20498;-64
2021/11/19 03:25:12;;;;;;;33.25;18.85;;;;;;;7.73;80.79;101315.88;5079888;28;20035;-63
2021/11/19 03:27:46;;;;;;;30.58;19.02;;;;;;;7.74;80.79;101309.00;5096047;28;20563;-63
2021/11/19 03:30:21;;;;;;;25.52;17.48;;;;;;;7.74;80.73;101306.44;5114835;28;20043;-63
2021/11/19 03:32:55;;;;;;;27.40;17.60;;;;;;;7.75;80.87;101306.53;5114915;28;20035;-62
2021/11/19 03:35:29;;;;;;;29.65;17.13;;;;;;;7.74;80.84;101304.75;5114801;28;20099;-62
2021/11/19 03:38:01;;;;;;;29.20;18.45;;;;;;;7.75;80.94;101308.19;5096202;28;20046;-63
2021/11/19 03:40:37;;;;;;;35.15;19.23;;;;;;;7.76;80.77;101309.97;5096770;28;20039;-63
2021/11/19 03:43:17;;;;;;;29.27;17.80;;;;;;;7.75;80.67;101298.78;5080104;28;20039;-63
2021/11/19 03:45:51;;;;;;;27.65;19.25;;;;;;;7.76;80.80;101308.28;5114542;28;20097;-62
2021/11/19 03:48:23;;;;;;;33.42;19.48;;;;;;;7.76;80.83;101295.38;5114689;28;20027;-63
2021/11/19 03:51:04;;;;;;;34.92;20.85;;;;;;;7.77;80.63;101299.75;5079308;28;20031;-63
2021/11/19 03:53:38;;;;;;;31.73;19.88;;;;;;;7.78;81.15;101298.91;5096430;28;20032;-63
2021/11/19 03:56:12;;;;;;;31.70;20.77;;;;;;;7.77;80.61;101288.53;5114385;28;20039;-63
2021/11/19 03:58:46;;;;;;;29.25;18.58;;;;;;;7.78;80.50;101298.03;5114906;28;20059;-62
2021/11/19 04:01:38;;;;;;;32.53;20.00;;;;;;;7.79;80.95;101294.63;5079039;28;20039;-64
2021/11/19 04:04:15;;;;;;;28.58;19.23;;;;;;;7.80;81.05;101295.50;5114403;28;20040;-63
2021/11/19 04:06:46;;;;;;;28.25;18.02;;;;;;;7.79;81.09;101292.06;5079254;28;20036;-63
2021/11/19 04:09:20;;;;;;;27.33;18.30;;;;;;;7.80;80.95;101295.50;5096702;28;20042;-63
2021/11/19 04:12:00;;;;;;;29.15;20.27;;;;;;;7.80;80.77;101295.50;5114650;28;20562;-63
2021/11/19 04:14:34;;;;;;;29.67;18.02;;;;;;;7.80;80.82;101300.66;5096003;28;20118;-63
2021/11/19 04:17:08;;;;;;;30.10;18.73;;;;;;;7.79;80.81;101294.63;5114122;28;20502;-63
2021/11/19 04:19:38;;;;;;;;;;;;;;;7.78;80.99;101293.75;5114453;28;20104;-63
2021/11/19 04:22:13;;;;;;;33.72;19.13;;;;;;;7.77;80.91;101293.69;5113003;28;19919;-63
2021/11/19 04:24:59;;;;;;;31.30;19.55;;;;;;;7.78;80.90;101282.53;5078527;28;20036;-63
2021/11/19 04:27:32;;;;;;;29.42;18.00;;;;;;;7.78;80.93;101287.72;5095748;28;20482;-62
2021/11/19 04:30:06;;;;;;;27.48;18.67;;;;;;;7.77;80.81;101286.84;5114227;28;20032;-62
2021/11/19 04:32:40;;;;;;;27.90;19.98;;;;;;;7.79;81.10;101286.91;5096228;28;20036;-62
2021/11/19 04:35:16;;;;;;;28.63;20.17;;;;;;;7.79;80.96;101289.47;5078959;28;20151;-63
2021/11/19 04:37:52;;;;;;;30.70;20.02;;;;;;;7.79;80.98;101289.47;5113897;28;20119;-62
2021/11/19 04:40:30;;;;;;;30.55;19.65;;;;;;;7.81;80.91;101295.59;5096522;28;20035;-63
2021/11/19 04:43:06;;;;;;;26.52;17.52;;;;;;;7.81;81.00;101298.19;5095384;28;20085;-63
2021/11/19 04:45:40;;;;;;;31.88;19.77;;;;;;;7.81;80.86;101299.88;5113808;28;20494;-63
2021/11/19 04:48:14;;;;;;;26.15;17.55;;;;;;;7.81;80.88;101297.28;5078951;28;20080;-63
2021/11/19 04:50:52;;;;;;;30.25;19.73;;;;;;;7.81;81.06;101298.19;5099779;28;20494;-63
2021/11/19 04:53:26;;;;;;;27.80;18.27;;;;;;;7.82;81.11;101299.06;5099924;28;20085;-62
2021/11/19 04:56:02;;;;;;;;;;;;;;;7.81;81.08;101294.69;5083874;28;20066;-63
2021/11/19 04:58:38;;;;;;;29.60;18.33;;;;;;;7.78;80.99;101296.31;5117460;27;20385;-63
2021/11/19 05:01:17;;;;;;;29.40;18.70;;;;;;;7.80;80.95;101291.25;5099254;28;20093;-63
2021/11/19 05:03:51;;;;;;;24.35;18.10;;;;;;;7.81;80.99;101294.69;5117622;28;20531;-63
2021/11/19 05:06:27;;;;;;;28.42;18.20;;;;;;;7.81;81.23;101298.19;5117564;28;20062;-62
2021/11/19 05:08:59;;;;;;;24.85;17.13;;;;;;;7.83;81.23;101290.50;5099524;28;20040;-63
2021/11/19 05:11:43;;;;;;;;;;;;;;;7.81;81.09;101287.84;5100515;28;20040;-62
2021/11/19 05:14:20;;;;;;;26.48;17.25;;;;;;;7.81;80.86;101293.03;5117541;28;20010;-62
2021/11/19 05:16:55;;;;;;;;;;;;;;;7.81;81.14;101297.28;5133559;27;20487;-63
2021/11/19 05:19:30;;;;;;;28.23;18.42;;;;;;;7.80;81.10;101296.41;5116637;28;19915;-63
2021/11/19 05:22:05;;;;;;;27.90;18.10;;;;;;;7.80;81.00;101296.41;5117444;28;20067;-62
2021/11/19 05:24:38;;;;;;;25.02;17.90;;;;;;;7.81;81.11;101295.59;5117232;28;20281;-63
2021/11/19 05:27:12;;;;;;;27.25;16.35;;;;;;;7.82;81.10;101294.78;5116993;28;20128;-63
2021/11/19 05:29:45;;;;;;;22.70;16.85;;;;;;;7.81;81.24;101293.03;5081606;28;20043;-62
2021/11/19 05:32:19;;;;;;;25.75;18.70;;;;;;;7.82;81.07;101289.63;5099097;28;20486;-63
2021/11/19 05:34:55;;;;;;;26.27;17.33;;;;;;;7.83;81.29;101287.91;5099372;28;20479;-63
2021/11/19 05:37:21;;;;;;;23.27;16.10;;;;;;;7.84;81.08;101288.00;5115713;28;20047;-63
2021/11/19 05:39:55;;;;;;;22.35;16.95;;;;;;;7.83;81.07;101290.50;5116951;28;20027;-63
2021/11/19 05:42:31;;;;;;;24.35;16.50;;;;;;;7.83;81.23;101290.50;5099254;28;20043;-63
2021/11/19 05:45:05;;;;;;;23.20;17.65;;;;;;;7.84;80.98;101290.59;5098817;28;20096;-63
2021/11/19 05:47:37;;;;;;;25.52;16.90;;;;;;;7.84;80.97;101289.69;5098639;28;20131;-64
2021/11/19 05:50:07;;;;;;;24.55;16.65;;;;;;;7.84;81.07;101289.69;5098716;28;20063;-63
2021/11/19 05:52:38;;;;;;;23.15;16.88;;;;;;;7.83;81.20;101296.56;5116947;28;20108;-63
2021/11/19 05:55:07;;;;;;;23.95;16.83;;;;;;;7.83;81.36;101301.72;5081703;28;20391;-62
2021/11/19 05:57:37;;;;;;;23.08;15.90;;;;;;;7.85;81.19;101299.22;5081729;28;20139;-62
2021/11/19 06:00:16;;;;;;;23.90;17.75;;;;;;;7.85;81.25;101301.78;5098287;28;20402;-63
2021/11/19 06:02:45;;;;;;;22.88;17.20;;;;;;;7.85;81.19;101306.94;5116780;28;20088;-62
2021/11/19 06:05:19;;;;;;;22.65;15.07;;;;;;;7.85;81.28;101302.69;5116614;28;20031;-63
2021/11/19 06:07:50;;;;;;;;;;;;;;;7.84;81.11;101305.19;5132559;27;20031;-63
2021/11/19 06:10:28;;;;;;;25.90;17.30;;;;;;;7.83;81.28;101304.31;5098687;28;19946;-63
2021/11/19 06:13:07;;;;;;;23.27;16.48;;;;;;;7.83;81.41;101316.31;5098086;28;20489;-62
2021/11/19 06:15:41;;;;;;;27.88;16.63;;;;;;;7.84;81.23;101316.41;5098219;28;20044;-63
2021/11/19 06:18:10;;;;;;;22.33;16.05;;;;;;;7.84;81.17;101316.41;5098263;28;20031;-62
2021/11/19 06:20:52;;;;;;;23.40;15.77;;;;;;;7.84;81.31;101318.97;5081497;28;20046;-63
2021/11/19 06:23:28;;;;;;;24.75;14.35;;;;;;;7.85;81.03;101314.69;5116373;28;20470;-63
2021/11/19 06:26:04;;;;;;;21.90;16.85;;;;;;;7.84;80.99;101318.97;5098194;28;20043;-63
2021/11/19 06:28:45;;;;;;;20.00;15.27;;;;;;;7.85;80.80;101318.19;5116007;28;20422;-63
2021/11/19 06:31:20;;;;;;;23.50;16.48;;;;;;;7.85;81.09;101325.91;5097976;28;20059;-63
2021/11/19 06:33:53;;;;;;;20.58;15.57;;;;;;;7.84;81.25;101323.25;5097782;28;20036;-63
2021/11/19 06:36:28;;;;;;;21.17;15.73;;;;;;;7.85;81.30;101320.75;5081727;28;20032;-63
2021/11/19 06:38:58;;;;;;;24.02;15.98;;;;;;;7.86;81.12;101327.66;5097893;28;20035;-62
2021/11/19 06:41:30;;;;;;;24.85;16.00;;;;;;;7.86;81.15;101325.06;5097861;28;20091;-63
2021/11/19 06:44:01;;;;;;;23.27;16.48;;;;;;;7.87;81.29;101333.72;5080667;28;20428;-63
2021/11/19 06:46:38;;;;;;;25.20;16.73;;;;;;;7.86;81.24;101327.66;5097109;28;20031;-62
2021/11/19 06:49:15;;;;;;;22.20;16.02;;;;;;;7.87;81.08;101333.72;5098070;28;20028;-62
2021/11/19 06:51:51;;;;;;;21.33;14.68;;;;;;;7.86;81.10;101331.94;5115894;28;20035;-63
2021/11/19 06:54:24;;;;;;;20.30;14.20;;;;;;;7.86;81.18;101335.41;5097726;28;20040;-62
2021/11/19 06:56:53;;;;;;;19.58;13.95;;;;;;;7.87;81.44;101334.59;5097299;28;20031;-62
2021/11/19 06:59:25;;;;;;;22.17;14.85;;;;;;;7.87;81.36;101334.59;5081120;28;20102;-63
2021/11/19 07:01:53;;;;;;;18.38;14.25;;;;;;;7.88;81.34;101343.25;5115266;28;20050;-63
2021/11/19 07:04:22;;;;;;;21.95;14.57;;;;;;;7.88;81.25;101335.50;5115236;28;20031;-63
2021/11/19 07:06:48;;;;;;;21.98;15.60;;;;;;;7.88;81.28;101344.09;5080062;28;20475;-63
2021/11/19 07:09:21;;;;;;;23.38;15.55;;;;;;;7.87;81.19;101347.50;5097841;28;20031;-63
2021/11/19 07:11:49;;;;;;;22.05;16.38;;;;;;;7.88;81.34;101350.97;5079156;28;20088;-63
2021/11/19 07:14:21;;;;;;;17.35;14.02;;;;;;;7.87;81.31;101352.66;5115723;28;20104;-62
2021/11/19 07:16:50;;;;;;;22.02;15.15;;;;;;;7.87;81.57;101360.41;5115252;28;20039;-62
2021/11/19 07:19:23;;;;;;;20.92;14.45;;;;;;;7.88;81.38;101357.00;5115444;28;20380;-62
2021/11/19 07:21:53;;;;;;;19.25;14.90;;;;;;;7.88;81.15;101359.59;5114968;28;20024;-63
2021/11/19 07:24:23;;;;;;;18.55;14.15;;;;;;;7.89;81.39;101357.91;5079727;28;20069;-63
2021/11/19 07:26:49;;;;;;;19.00;14.07;;;;;;;7.89;81.22;101357.91;5114684;28;20067;-63
2021/11/19 07:29:26;;;;;;;17.73;14.00;;;;;;;7.90;81.58;101357.97;5114688;28;20042;-64
2021/11/19 07:32:01;;;;;;;21.45;16.33;;;;;;;7.91;81.33;101358.88;5130497;27;20035;-64
2021/11/19 07:34:27;;;;;;;20.05;14.00;;;;;;;7.91;81.30;101367.50;5079501;28;20100;-63
2021/11/19 07:36:59;;;;;;;18.42;13.77;;;;;;;7.91;81.17;101369.19;5114651;28;20040;-62
2021/11/19 07:39:30;;;;;;;18.23;14.00;;;;;;;7.90;81.32;101373.47;5115273;28;20032;-62
2021/11/19 07:42:01;;;;;;;16.38;13.23;;;;;;;7.91;81.17;101366.63;5114711;28;20044;-63
2021/11/19 07:44:37;;;;;;;17.20;13.52;;;;;;;7.91;81.46;101369.19;5114627;28;20039;-63
2021/11/19 07:47:10;;;;;;;18.20;14.18;;;;;;;7.92;81.40;101374.44;5114454;28;20036;-63
2021/11/19 07:49:41;;;;;;;19.08;14.57;;;;;;;7.92;81.62;101374.44;5114347;28;20035;-63
2021/11/19 07:52:15;;;;;;;18.58;13.95;;;;;;;7.91;81.55;101372.66;5096820;28;20044;-63
2021/11/19 07:54:40;;;;;;;16.92;12.93;;;;;;;7.92;81.30;101379.59;5079536;28;20047;-62
2021/11/19 07:57:14;;;;;;;17.73;14.10;;;;;;;7.92;81.28;101369.25;5096197;28;20039;-63
2021/11/19 07:59:45;;;;;;;17.02;13.05;;;;;;;7.92;81.46;101374.44;5096770;28;20040;-62
2021/11/19 08:02:15;;;;;;;19.93;14.30;;;;;;;7.95;81.49;101372.81;5096482;28;20039;-63
2021/11/19 08:04:45;;;;;;;17.77;13.55;;;;;;;7.93;81.22;101371.03;5114129;28;20122;-63
2021/11/19 08:07:16;;;;;;;18.70;14.88;;;;;;;7.94;81.37;101371.94;5114375;28;20031;-62
2021/11/19 08:09:49;;;;;;;18.55;14.18;;;;;;;7.95;81.25;101372.81;5096039;28;20043;-65
2021/11/19 08:12:25;;;;;;;19.30;13.85;;;;;;;7.95;81.77;101372.81;5079745;28;20039;-62
2021/11/19 08:14:56;;;;;;;19.50;13.60;;;;;;;7.95;81.58;101367.66;5114530;28;20036;-62
2021/11/19 08:17:44;;;;;;;18.35;14.07;;;;;;;7.96;81.45;101372.88;5096317;28;20076;-63
2021/11/19 08:20:20;;;;;;;20.10;15.05;;;;;;;7.96;81.61;101370.28;5078874;28;20035;-63
2021/11/19 08:22:48;;;;;;;20.65;15.13;;;;;;;7.95;81.41;101371.09;5114103;28;20039;-63
2021/11/19 08:25:23;;;;;;;21.65;14.90;;;;;;;7.96;81.49;101365.13;5095710;28;20031;-63
2021/11/19 08:27:52;;;;;;;20.10;14.27;;;;;;;7.98;81.68;101366.09;5095579;28;20044;-62
2021/11/19 08:30:40;;;;;;;17.83;14.07;;;;;;;7.98;81.22;101370.38;5078957;28;20047;-62
2021/11/19 08:33:19;;;;;;;19.70;14.07;;;;;;;7.97;81.71;101369.47;5096342;28;20127;-64
2021/11/19 08:35:47;;;;;;;21.10;15.10;;;;;;;7.99;81.79;101354.09;5095595;28;20118;-62
2021/11/19 08:38:24;;;;;;;19.35;15.27;;;;;;;7.98;81.77;101355.75;5095457;28;20035;-63
2021/11/19 08:40:51;;;;;;;21.25;14.93;;;;;;;7.99;81.51;101361.81;5077774;28;20047;-63
2021/11/19 08:43:24;;;;;;;21.55;16.25;;;;;;;7.99;81.40;101360.13;5077802;28;20077;-63
2021/11/19 08:45:53;;;;;;;20.25;16.00;;;;;;;7.99;81.59;101360.13;5113040;28;20507;-63
2021/11/19 08:48:19;;;;;;;19.92;15.40;;;;;;;8.02;81.23;101359.41;5094319;28;20035;-64
2021/11/19 08:50:45;;;;;;;19.85;14.80;;;;;;;8.02;81.34;101361.97;5093916;28;20039;-64
2021/11/19 08:53:14;;;;;;;20.30;15.35;;;;;;;8.02;81.69;101362.84;5113340;28;20066;-64
2021/11/19 08:55:55;;;;;;;19.67;15.25;;;;;;;8.02;81.63;101365.44;5078622;28;20422;-64
2021/11/19 08:58:35;;;;;;;29.02;16.85;;;;;;;8.02;81.40;101365.44;5095541;28;20044;-62
2021/11/19 09:01:09;;;;;;;18.50;13.52;;;;;;;8.02;81.46;101370.59;5079306;28;20051;-62
2021/11/19 09:03:40;;;;;;;21.85;15.43;;;;;;;8.02;81.43;101375.75;5113867;28;20028;-63
2021/11/19 09:06:10;;;;;;;20.33;15.02;;;;;;;8.03;81.44;101368.88;5095554;28;20044;-63
2021/11/19 09:08:47;;;;;;;20.60;14.95;;;;;;;8.04;81.64;101362.91;5078627;28;20555;-63
2021/11/19 09:11:19;;;;;;;18.23;13.90;;;;;;;8.03;81.57;101368.88;5095604;28;20042;-63
2021/11/19 09:13:47;;;;;;;21.00;14.85;;;;;;;8.04;81.60;101362.91;5078900;28;20035;-63
2021/11/19 09:16:28;;;;;;;20.25;15.88;;;;;;;8.03;81.51;101366.31;5113496;28;20031;-63
2021/11/19 09:19:22;;;;;;;21.63;14.93;;;;;;;8.05;81.57;101380.19;5095285;28;20076;-62
2021/11/19 09:22:32;;;;;;;20.42;14.98;;;;;;;8.04;81.42;101384.47;5078814;28;20039;-63
2021/11/19 09:25:04;;;;;;;19.83;14.90;;;;;;;8.04;81.29;101384.47;5078515;28;20042;-63
2021/11/19 09:27:34;;;;;;;19.60;14.45;;;;;;;8.04;81.51;101384.47;5112957;28;20039;-62
2021/11/19 09:30:15;;;;;;;19.67;15.38;;;;;;;8.05;81.61;101387.91;5113519;28;20363;-63
2021/11/19 09:32:53;;;;;;;19.02;14.32;;;;;;;8.05;81.39;101393.97;5078153;28;20040;-62
2021/11/19 09:35:26;;;;;;;17.83;14.10;;;;;;;8.05;81.41;101399.16;5097527;28;20084;-62
2021/11/19 09:37:57;;;;;;;20.73;15.85;;;;;;;8.07;81.62;101399.22;5099340;28;20047;-62
2021/11/19 09:40:35;;;;;;;19.35;13.65;;;;;;;8.06;81.59;101402.59;5098624;28;20027;-62
2021/11/19 09:43:25;;;;;;;20.63;15.18;;;;;;;8.07;81.50;101400.13;5117227;28;20031;-62
2021/11/19 09:46:05;;;;;;;24.42;15.10;;;;;;;8.09;81.54;101405.34;5116933;28;20562;-64
2021/11/19 09:48:44;;;;;;;18.30;14.38;;;;;;;8.08;81.61;101401.88;5081844;28;20069;-64
2021/11/19 09:51:29;;;;;;;21.85;15.15;;;;;;;8.10;81.52;101404.53;5099192;28;20034;-62
2021/11/19 09:54:31;;;;;;;24.98;16.30;;;;;;;8.10;81.54;101399.38;5116761;28;20435;-63
2021/11/19 09:57:25;;;;;;;22.88;15.32;;;;;;;8.10;81.69;101404.53;5098829;28;20043;-62
2021/11/19 10:00:11;;;;;;;19.63;14.73;;;;;;;8.09;81.76;101413.09;5116526;28;20032;-63
2021/11/19 10:02:51;;;;;;;20.67;15.00;;;;;;;8.11;81.58;101395.06;5081373;28;20035;-63
2021/11/19 10:05:42;;;;;;;18.80;14.75;;;;;;;8.10;81.68;101403.66;5081823;28;20399;-63
2021/11/19 10:08:37;;;;;;;18.02;13.38;;;;;;;8.11;81.55;101406.31;5116299;28;20118;-62
2021/11/19 10:11:17;;;;;;;17.95;14.43;;;;;;;8.11;81.79;101401.13;5108937;28;20394;-63
2021/11/19 10:14:22;;;;;;;19.08;14.25;;;;;;;8.12;81.61;101407.16;5116382;28;20070;-62
2021/11/19 10:17:08;;;;;;;19.80;14.30;;;;;;;8.12;81.82;101396.84;5098379;28;20506;-62
2021/11/19 10:20:11;;;;;;;16.58;12.48;;;;;;;8.12;81.77;101405.50;5081079;28;20127;-62
2021/11/19 10:22:56;;;;;;;19.35;13.25;;;;;;;8.11;81.59;101402.81;5068056;28;20134;-63
2021/11/19 10:25:30;;;;;;;18.15;13.93;;;;;;;8.12;81.67;101399.44;5097993;28;20043;-63
2021/11/19 10:28:15;;;;;;;15.43;12.27;;;;;;;8.11;81.94;101392.47;5081202;28;20376;-62
2021/11/19 10:30:53;;;;;;;16.67;11.95;;;;;;;8.13;81.30;101394.34;5116283;28;20047;-63
2021/11/19 10:33:24;;;;;;;15.00;12.30;;;;;;;8.13;81.76;101385.69;5098087;28;20084;-63
2021/11/19 10:35:57;;;;;;;16.75;12.43;;;;;;;8.13;81.71;101384.03;5097590;28;20100;-63
2021/11/19 10:38:55;;;;;;;16.33;12.20;;;;;;;8.14;81.63;101395.22;5097486;28;20410;-63
2021/11/19 10:41:32;;;;;;;19.15;14.65;;;;;;;8.14;81.75;101388.38;5080901;28;20055;-62
2021/11/19 10:44:25;;;;;;;17.80;13.13;;;;;;;8.13;81.68;101383.13;5080939;28;20070;-63
2021/11/19 10:47:10;;;;;;;14.68;11.90;;;;;;;8.14;81.78;101385.78;5080912;28;20039;-63
2021/11/19 10:49:43;;;;;;;21.05;14.45;;;;;;;8.13;81.76;101391.78;5080982;28;20122;-63
2021/11/19 10:52:38;;;;;;;20.60;15.07;;;;;;;8.15;81.71;101386.66;5080351;28;20126;-62
2021/11/19 10:55:29;;;;;;;31.63;23.08;;;;;;;8.14;81.70;101390.06;5080391;28;20041;-62
2021/11/19 10:58:23;;;;;;;30.27;24.73;;;;;;;8.13;82.01;101394.34;5080204;28;20042;-62
2021/11/19 11:00:58;;;;;;;41.67;34.05;;;;;;;8.11;81.77;101388.22;5079613;28;20035;-62
2021/11/19 11:03:32;;;;;;;43.83;32.75;;;;;;;8.13;81.75;101394.34;5096965;28;20518;-63
2021/11/19 11:06:06;;;;;;;43.35;34.50;;;;;;;8.12;81.65;101397.75;5097300;28;20046;-64
2021/11/19 11:08:38;;;;;;;42.88;35.88;;;;;;;8.13;81.84;101399.50;5115261;28;20071;-63
2021/11/19 11:11:30;;;;;;;38.92;31.83;;;;;;;8.14;81.77;101401.28;5080269;28;20043;-63
2021/11/19 11:14:05;;;;;;;38.30;31.05;;;;;;;8.15;81.89;101397.91;5080271;28;20043;-63
2021/11/19 11:16:42;;;;;;;34.63;27.38;;;;;;;8.16;81.84;101391.91;5096474;28;20077;-63
2021/11/19 11:19:18;;;;;;;35.88;27.83;;;;;;;8.16;81.81;101389.34;5097029;28;20047;-63
2021/11/19 11:21:50;;;;;;;32.80;26.40;;;;;;;8.16;81.85;101389.34;5097253;28;20032;-63
2021/11/19 11:24:27;;;;;;;33.97;27.65;;;;;;;8.17;81.93;101382.47;5079723;28;20042;-62
2021/11/19 11:26:54;;;;;;;32.28;26.95;;;;;;;8.18;81.77;101389.41;5114364;28;20195;-63
2021/11/19 11:29:52;;;;;;;35.00;29.85;;;;;;;8.17;81.67;101383.38;5096421;28;20517;-63
2021/11/19 11:32:35;;;;;;;30.13;24.20;;;;;;;8.19;81.91;101386.00;5114924;28;20039;-62
2021/11/19 11:35:20;;;;;;;44.00;37.33;;;;;;;8.18;81.79;101385.09;5115262;28;20047;-63
2021/11/19 11:38:05;;;;;;;;;;;;;;;8.19;81.88;101384.28;5097386;28;20093;-64
2021/11/19 11:40:36;;;;;;;50.65;43.05;;;;;;;8.20;81.95;101382.63;5103751;28;19950;-63
2021/11/19 11:43:32;;;;;;;73.65;65.70;;;;;;;8.19;81.88;101383.41;5096255;28;20040;-62
2021/11/19 11:46:15;;;;;;;57.58;51.33;;;;;;;8.21;82.01;101381.81;5114687;28;20039;-63
2021/11/19 11:48:49;;;;;;;68.97;57.17;;;;;;;8.20;82.06;101380.03;5096710;28;20028;-62
2021/11/19 11:51:23;;;;;;;59.78;53.47;;;;;;;8.22;81.96;101378.41;5114565;28;20035;-63
2021/11/19 11:54:16;;;;;;;58.65;52.10;;;;;;;8.23;81.84;101372.44;5079983;28;20410;-63
2021/11/19 11:56:46;;;;;;;52.75;44.72;;;;;;;8.23;81.70;101368.13;5114710;28;20059;-63
2021/11/19 11:59:30;;;;;;;53.40;46.25;;;;;;;8.22;81.93;101363.78;5113248;28;20067;-63
2021/11/19 12:02:03;;;;;;;50.72;40.42;;;;;;;8.23;82.04;101370.72;5096122;28;20035;-63